TimePDT,TemperatureF,Dew PointF,Humidity,Sea Level PressureIn,VisibilityMPH,Wind Direction,Wind SpeedMPH,Gust SpeedMPH,PrecipitationIn,Events,Conditions,WindDirDegrees,DateUTC
12:15 AM,62.6,50.0,63,29.85,10.0,SSE,9.2,-,N/A,,Clear,150,2013-08-23 07:15:00
12:35 AM,62.6,50.0,63,29.86,10.0,SSE,8.1,-,N/A,,Clear,160,2013-08-23 07:35:00
12:55 AM,62.6,50.0,63,29.86,10.0,SSE,9.2,-,N/A,,Clear,160,2013-08-23 07:55:00
1:15 AM,62.6,50.0,63,29.86,10.0,SSE,6.9,-,N/A,,Clear,160,2013-08-23 08:15:00
1:35 AM,60.8,50.0,68,29.86,10.0,SSE,6.9,-,N/A,,Clear,160,2013-08-23 08:35:00
1:55 AM,60.8,50.0,68,29.86,10.0,SSE,9.2,-,N/A,,Clear,160,2013-08-23 08:55:00
2:15 AM,59.0,50.0,72,29.86,10.0,SSE,8.1,-,N/A,,Clear,160,2013-08-23 09:15:00
2:35 AM,59.0,51.8,77,29.86,10.0,SSE,8.1,-,N/A,,Clear,150,2013-08-23 09:35:00
2:55 AM,59.0,51.8,77,29.86,10.0,SE,9.2,-,N/A,,Clear,140,2013-08-23 09:55:00
3:15 AM,59.0,51.8,77,29.86,10.0,SE,8.1,-,N/A,,Clear,140,2013-08-23 10:15:00
3:35 AM,59.0,51.8,77,29.86,10.0,SSE,10.4,-,N/A,,Clear,150,2013-08-23 10:35:00
3:55 AM,59.0,51.8,77,29.85,10.0,SE,8.1,-,N/A,,Clear,140,2013-08-23 10:55:00
4:15 AM,59.0,51.8,77,29.86,10.0,SSE,8.1,-,N/A,,Clear,150,2013-08-23 11:15:00
4:35 AM,57.2,51.8,82,29.86,10.0,SSE,8.1,-,N/A,,Clear,150,2013-08-23 11:35:00
4:55 AM,57.2,51.8,82,29.85,10.0,SSE,9.2,-,N/A,,Clear,150,2013-08-23 11:55:00
5:15 AM,57.2,51.8,82,29.85,10.0,SSE,9.2,-,N/A,,Clear,150,2013-08-23 12:15:00
5:35 AM,57.2,51.8,82,29.85,10.0,SSE,9.2,-,N/A,,Clear,150,2013-08-23 12:35:00
5:55 AM,57.2,51.8,82,29.86,10.0,South,5.8,-,N/A,,Clear,170,2013-08-23 12:55:00
6:15 AM,55.4,50.0,82,29.87,10.0,SSE,4.6,-,N/A,,Clear,150,2013-08-23 13:15:00
6:35 AM,55.4,51.8,88,29.87,10.0,ESE,4.6,-,N/A,,Clear,110,2013-08-23 13:35:00
6:55 AM,57.2,51.8,82,29.88,10.0,SSE,5.8,-,N/A,,Clear,150,2013-08-23 13:55:00
7:15 AM,59.0,51.8,77,29.88,10.0,SE,8.1,-,N/A,,Clear,130,2013-08-23 14:15:00
7:35 AM,59.0,51.8,77,29.88,10.0,ESE,6.9,-,N/A,,Clear,120,2013-08-23 14:35:00
7:55 AM,60.8,51.8,72,29.88,10.0,SSE,6.9,-,N/A,,Clear,150,2013-08-23 14:55:00
8:15 AM,62.6,51.8,68,29.88,10.0,SSE,8.1,-,N/A,,Clear,150,2013-08-23 15:15:00
8:35 AM,62.6,51.8,68,29.88,10.0,South,8.1,-,N/A,,Clear,190,2013-08-23 15:35:00
8:55 AM,64.4,51.8,64,29.88,10.0,South,8.1,-,N/A,,Clear,190,2013-08-23 15:55:00
9:15 AM,64.4,51.8,64,29.88,10.0,South,5.8,-,N/A,,Clear,190,2013-08-23 16:15:00
9:35 AM,66.2,51.8,60,29.88,10.0,South,6.9,-,N/A,,Clear,190,2013-08-23 16:35:00
9:55 AM,68.0,51.8,56,29.88,10.0,SSE,3.5,-,N/A,,Clear,160,2013-08-23 16:55:00
10:15 AM,69.8,51.8,53,29.88,10.0,ESE,3.5,-,N/A,,Clear,120,2013-08-23 17:15:00
10:35 AM,71.6,50.0,46,29.88,10.0,SE,4.6,-,N/A,,Clear,140,2013-08-23 17:35:00
10:55 AM,71.6,50.0,46,29.88,10.0,SSE,3.5,-,N/A,,Clear,160,2013-08-23 17:55:00
11:15 AM,73.4,50.0,44,29.88,10.0,South,3.5,-,N/A,,Clear,170,2013-08-23 18:15:00
11:35 AM,77.0,51.8,41,29.87,10.0,South,5.8,-,N/A,,Clear,170,2013-08-23 18:35:00
11:55 AM,77.0,50.0,39,29.86,10.0,SSE,3.5,-,N/A,,Clear,150,2013-08-23 18:55:00
12:15 PM,77.0,48.2,36,29.86,10.0,SSE,3.5,-,N/A,,Clear,160,2013-08-23 19:15:00
12:35 PM,78.8,46.4,32,29.85,10.0,SSW,6.9,-,N/A,,Clear,200,2013-08-23 19:35:00
12:55 PM,80.6,46.4,30,29.85,10.0,SSW,3.5,-,N/A,,Clear,200,2013-08-23 19:55:00
1:15 PM,82.4,46.4,28,29.84,10.0,Calm,Calm,-,N/A,,Clear,0,2013-08-23 20:15:00
1:35 PM,82.4,48.2,30,29.83,10.0,SSW,4.6,-,N/A,,Clear,200,2013-08-23 20:35:00
1:55 PM,84.2,48.2,29,29.82,10.0,WNW,4.6,-,N/A,,Clear,300,2013-08-23 20:55:00
2:15 PM,86.0,48.2,27,29.82,10.0,NW,3.5,-,N/A,,Clear,310,2013-08-23 21:15:00
2:35 PM,87.8,50.0,27,29.81,10.0,SW,6.9,-,N/A,,Clear,230,2013-08-23 21:35:00
2:55 PM,87.8,48.2,25,29.80,10.0,WNW,4.6,-,N/A,,Clear,290,2013-08-23 21:55:00
3:15 PM,87.8,46.4,24,29.79,10.0,West,5.8,-,N/A,,Clear,260,2013-08-23 22:15:00
3:35 PM,89.6,46.4,22,29.78,10.0,SW,8.1,-,N/A,,Clear,230,2013-08-23 22:35:00
3:55 PM,89.6,46.4,22,29.78,10.0,West,4.6,-,N/A,,Clear,260,2013-08-23 22:55:00
4:15 PM,89.6,42.8,20,29.77,10.0,South,4.6,-,N/A,,Clear,180,2013-08-23 23:15:00
4:35 PM,89.6,41.0,18,29.76,10.0,SSW,5.8,-,N/A,,Clear,210,2013-08-23 23:35:00
4:55 PM,89.6,41.0,18,29.75,10.0,SW,4.6,-,N/A,,Clear,220,2013-08-23 23:55:00
5:15 PM,89.6,37.4,16,29.75,10.0,SW,3.5,-,N/A,,Clear,230,2013-08-24 00:15:00
5:35 PM,91.4,35.6,14,29.74,10.0,SSW,4.6,-,N/A,,Clear,210,2013-08-24 00:35:00
5:55 PM,89.6,33.8,14,29.74,10.0,SSW,3.5,-,N/A,,Clear,200,2013-08-24 00:55:00
6:15 PM,91.4,33.8,13,29.73,10.0,SW,4.6,-,N/A,,Clear,220,2013-08-24 01:15:00
6:35 PM,89.6,35.6,15,29.73,10.0,SW,5.8,-,N/A,,Clear,230,2013-08-24 01:35:00
6:55 PM,87.8,42.8,21,29.72,10.0,WSW,6.9,-,N/A,,Clear,240,2013-08-24 01:55:00
7:15 PM,86.0,48.2,27,29.72,10.0,SW,4.6,-,N/A,,Clear,230,2013-08-24 02:15:00
7:35 PM,82.4,50.0,32,29.72,10.0,SSW,5.8,-,N/A,,Clear,200,2013-08-24 02:35:00
7:55 PM,78.8,48.2,34,29.72,10.0,SSW,5.8,-,N/A,,Clear,200,2013-08-24 02:55:00
8:15 PM,77.0,50.0,39,29.72,10.0,South,6.9,-,N/A,,Clear,190,2013-08-24 03:15:00
8:35 PM,77.0,46.4,34,29.72,10.0,South,5.8,-,N/A,,Clear,180,2013-08-24 03:35:00
8:55 PM,77.0,46.4,34,29.73,10.0,South,5.8,-,N/A,,Clear,180,2013-08-24 03:55:00
9:15 PM,73.4,46.4,38,29.73,10.0,South,6.9,-,N/A,,Clear,170,2013-08-24 04:15:00
9:35 PM,71.6,48.2,43,29.74,10.0,SSE,5.8,-,N/A,,Clear,160,2013-08-24 04:35:00
9:55 PM,73.4,50.0,44,29.74,10.0,SSE,6.9,-,N/A,,Clear,150,2013-08-24 04:55:00
10:15 PM,75.2,50.0,41,29.75,10.0,SSE,4.6,-,N/A,,Clear,150,2013-08-24 05:15:00
10:35 PM,71.6,50.0,46,29.75,10.0,SSE,8.1,-,N/A,,Clear,150,2013-08-24 05:35:00
10:55 PM,73.4,50.0,44,29.75,10.0,SE,9.2,-,N/A,,Clear,140,2013-08-24 05:55:00
11:15 PM,73.4,50.0,44,29.75,10.0,SE,9.2,-,N/A,,Clear,140,2013-08-24 06:15:00
11:35 PM,71.6,50.0,46,29.75,10.0,SSE,10.4,-,N/A,,Clear,150,2013-08-24 06:35:00
11:55 PM,71.6,50.0,46,29.76,10.0,SSE,10.4,-,N/A,,Clear,150,2013-08-24 06:55:00